sensor_id;sensor_type;location;lat;lon;timestamp;temperature;humidity
53844;DHT22;39744;53.314;5.710;2023-10-13T00:02:00;13.60;99.90
53844;DHT22;39744;53.314;5.710;2023-10-13T00:04:27;13.70;99.90
53844;DHT22;39744;53.314;5.710;2023-10-13T00:06:54;13.80;99.90
53844;DHT22;39744;53.314;5.710;2023-10-13T00:09:22;13.70;99.90
53844;DHT22;39744;53.314;5.710;2023-10-13T00:11:52;13.80;99.90
53844;DHT22;39744;53.314;5.710;2023-10-13T00:14:20;13.80;99.90
53844;DHT22;39744;53.314;5.710;2023-10-13T00:16:56;13.80;99.90
53844;DHT22;39744;53.314;5.710;2023-10-13T00:19:32;13.80;99.90
53844;DHT22;39744;53.314;5.710;2023-10-13T00:22:08;13.80;99.90
53844;DHT22;39744;53.314;5.710;2023-10-13T00:24:36;13.90;99.90
53844;DHT22;39744;53.314;5.710;2023-10-13T00:27:18;13.90;99.90
53844;DHT22;39744;53.314;5.710;2023-10-13T00:29:57;13.90;99.90
53844;DHT22;39744;53.314;5.710;2023-10-13T00:32:46;13.90;99.90
53844;DHT22;39744;53.314;5.710;2023-10-13T00:35:26;13.90;99.90
53844;DHT22;39744;53.314;5.710;2023-10-13T00:38:01;13.90;99.90
53844;DHT22;39744;53.314;5.710;2023-10-13T00:40:33;13.90;99.90
53844;DHT22;39744;53.314;5.710;2023-10-13T00:42:59;14.00;99.90
53844;DHT22;39744;53.314;5.710;2023-10-13T00:45:56;14.00;99.90
53844;DHT22;39744;53.314;5.710;2023-10-13T00:48:36;14.00;99.90
53844;DHT22;39744;53.314;5.710;2023-10-13T00:51:09;14.10;99.90
53844;DHT22;39744;53.314;5.710;2023-10-13T00:53:44;14.10;99.90
53844;DHT22;39744;53.314;5.710;2023-10-13T00:56:14;14.10;99.90
53844;DHT22;39744;53.314;5.710;2023-10-13T00:58:53;14.10;99.90
53844;DHT22;39744;53.314;5.710;2023-10-13T01:01:20;14.10;99.90
53844;DHT22;39744;53.314;5.710;2023-10-13T01:03:53;14.20;99.90
53844;DHT22;39744;53.314;5.710;2023-10-13T01:06:21;14.20;99.90
53844;DHT22;39744;53.314;5.710;2023-10-13T01:09:04;14.20;99.90
53844;DHT22;39744;53.314;5.710;2023-10-13T01:11:42;14.30;99.90
53844;DHT22;39744;53.314;5.710;2023-10-13T01:14:12;14.30;99.90
53844;DHT22;39744;53.314;5.710;2023-10-13T01:16:38;14.30;99.90
53844;DHT22;39744;53.314;5.710;2023-10-13T01:19:16;14.40;99.90
53844;DHT22;39744;53.314;5.710;2023-10-13T01:21:50;14.50;99.90
53844;DHT22;39744;53.314;5.710;2023-10-13T01:24:22;14.60;99.90
53844;DHT22;39744;53.314;5.710;2023-10-13T01:26:49;14.70;99.90
53844;DHT22;39744;53.314;5.710;2023-10-13T01:29:18;14.80;99.90
53844;DHT22;39744;53.314;5.710;2023-10-13T01:31:45;14.90;99.90
53844;DHT22;39744;53.314;5.710;2023-10-13T01:34:15;15.10;99.90
53844;DHT22;39744;53.314;5.710;2023-10-13T01:36:54;15.10;99.90
53844;DHT22;39744;53.314;5.710;2023-10-13T01:39:24;15.20;99.90
53844;DHT22;39744;53.314;5.710;2023-10-13T01:41:57;15.20;99.90
53844;DHT22;39744;53.314;5.710;2023-10-13T01:44:26;15.30;99.90
53844;DHT22;39744;53.314;5.710;2023-10-13T01:46:59;15.40;99.90
53844;DHT22;39744;53.314;5.710;2023-10-13T01:49:25;15.30;99.90
53844;DHT22;39744;53.314;5.710;2023-10-13T01:51:51;15.40;99.90
53844;DHT22;39744;53.314;5.710;2023-10-13T01:54:17;15.40;99.90
53844;DHT22;39744;53.314;5.710;2023-10-13T01:56:43;15.60;99.90
53844;DHT22;39744;53.314;5.710;2023-10-13T01:59:12;15.50;99.90
53844;DHT22;39744;53.314;5.710;2023-10-13T02:01:38;15.60;99.90
53844;DHT22;39744;53.314;5.710;2023-10-13T02:04:05;15.50;99.90
53844;DHT22;39744;53.314;5.710;2023-10-13T02:06:33;15.60;99.90
53844;DHT22;39744;53.314;5.710;2023-10-13T02:09:00;15.60;99.90
53844;DHT22;39744;53.314;5.710;2023-10-13T02:11:39;15.60;99.90
53844;DHT22;39744;53.314;5.710;2023-10-13T02:14:05;15.60;99.90
53844;DHT22;39744;53.314;5.710;2023-10-13T02:16:31;15.60;99.90
53844;DHT22;39744;53.314;5.710;2023-10-13T02:18:57;15.70;99.90
53844;DHT22;39744;53.314;5.710;2023-10-13T02:21:32;15.70;99.90
53844;DHT22;39744;53.314;5.710;2023-10-13T02:23:58;15.70;99.90
53844;DHT22;39744;53.314;5.710;2023-10-13T02:26:31;15.70;99.90
53844;DHT22;39744;53.314;5.710;2023-10-13T02:29:01;15.70;99.90
53844;DHT22;39744;53.314;5.710;2023-10-13T02:31:35;15.70;99.90
53844;DHT22;39744;53.314;5.710;2023-10-13T02:34:01;15.70;99.90
53844;DHT22;39744;53.314;5.710;2023-10-13T02:36:32;15.70;99.90
53844;DHT22;39744;53.314;5.710;2023-10-13T02:39:13;15.70;99.90
53844;DHT22;39744;53.314;5.710;2023-10-13T02:41:39;15.70;99.90
53844;DHT22;39744;53.314;5.710;2023-10-13T02:44:07;15.70;99.90
53844;DHT22;39744;53.314;5.710;2023-10-13T02:46:36;15.70;99.90
53844;DHT22;39744;53.314;5.710;2023-10-13T02:49:05;15.70;99.90
53844;DHT22;39744;53.314;5.710;2023-10-13T02:51:37;15.70;99.90
53844;DHT22;39744;53.314;5.710;2023-10-13T02:54:06;15.80;99.90
53844;DHT22;39744;53.314;5.710;2023-10-13T02:56:38;15.70;99.90
53844;DHT22;39744;53.314;5.710;2023-10-13T02:59:15;15.70;99.90
53844;DHT22;39744;53.314;5.710;2023-10-13T03:01:41;15.70;99.90
53844;DHT22;39744;53.314;5.710;2023-10-13T03:04:07;15.80;99.90
53844;DHT22;39744;53.314;5.710;2023-10-13T03:06:35;15.70;99.90
53844;DHT22;39744;53.314;5.710;2023-10-13T03:09:02;15.70;99.90
53844;DHT22;39744;53.314;5.710;2023-10-13T03:11:43;15.80;99.90
53844;DHT22;39744;53.314;5.710;2023-10-13T03:14:17;15.80;99.90
53844;DHT22;39744;53.314;5.710;2023-10-13T03:16:53;15.70;99.90
53844;DHT22;39744;53.314;5.710;2023-10-13T03:19:20;15.70;99.90
53844;DHT22;39744;53.314;5.710;2023-10-13T03:21:46;15.80;99.90
53844;DHT22;39744;53.314;5.710;2023-10-13T03:24:21;15.70;99.90
53844;DHT22;39744;53.314;5.710;2023-10-13T03:26:59;15.70;99.90
53844;DHT22;39744;53.314;5.710;2023-10-13T03:29:40;15.70;99.90
53844;DHT22;39744;53.314;5.710;2023-10-13T03:32:10;15.70;99.90
53844;DHT22;39744;53.314;5.710;2023-10-13T03:34:44;15.80;99.90
53844;DHT22;39744;53.314;5.710;2023-10-13T03:37:20;15.70;99.90
53844;DHT22;39744;53.314;5.710;2023-10-13T03:40:05;15.70;99.90
53844;DHT22;39744;53.314;5.710;2023-10-13T03:42:34;15.80;99.90
53844;DHT22;39744;53.314;5.710;2023-10-13T03:44:59;15.70;99.90
53844;DHT22;39744;53.314;5.710;2023-10-13T03:47:25;15.60;99.90
53844;DHT22;39744;53.314;5.710;2023-10-13T03:49:57;15.80;99.90
53844;DHT22;39744;53.314;5.710;2023-10-13T03:52:42;15.80;99.90
53844;DHT22;39744;53.314;5.710;2023-10-13T03:55:08;15.60;99.90
53844;DHT22;39744;53.314;5.710;2023-10-13T03:57:41;15.70;99.90
53844;DHT22;39744;53.314;5.710;2023-10-13T04:00:08;15.70;99.90
53844;DHT22;39744;53.314;5.710;2023-10-13T04:02:35;15.70;99.90
53844;DHT22;39744;53.314;5.710;2023-10-13T04:05:02;15.70;99.90
53844;DHT22;39744;53.314;5.710;2023-10-13T04:07:34;15.70;99.90
53844;DHT22;39744;53.314;5.710;2023-10-13T04:10:00;15.70;99.90
53844;DHT22;39744;53.314;5.710;2023-10-13T04:12:45;15.70;99.90
53844;DHT22;39744;53.314;5.710;2023-10-13T04:15:29;15.80;99.90
53844;DHT22;39744;53.314;5.710;2023-10-13T04:18:05;15.90;99.90
53844;DHT22;39744;53.314;5.710;2023-10-13T04:20:40;15.80;99.90
53844;DHT22;39744;53.314;5.710;2023-10-13T04:23:11;15.80;99.90
53844;DHT22;39744;53.314;5.710;2023-10-13T04:25:44;15.70;99.90
53844;DHT22;39744;53.314;5.710;2023-10-13T04:28:14;15.70;99.90
53844;DHT22;39744;53.314;5.710;2023-10-13T04:33:22;15.80;99.90
53844;DHT22;39744;53.314;5.710;2023-10-13T04:36:14;15.80;99.90
53844;DHT22;39744;53.314;5.710;2023-10-13T04:38:43;16.00;99.90
53844;DHT22;39744;53.314;5.710;2023-10-13T04:41:29;15.90;99.90
53844;DHT22;39744;53.314;5.710;2023-10-13T04:44:17;15.90;99.90
53844;DHT22;39744;53.314;5.710;2023-10-13T04:46:56;15.80;99.90
53844;DHT22;39744;53.314;5.710;2023-10-13T04:49:31;15.80;99.90
53844;DHT22;39744;53.314;5.710;2023-10-13T04:52:01;15.90;99.90
53844;DHT22;39744;53.314;5.710;2023-10-13T04:54:41;15.90;99.90
53844;DHT22;39744;53.314;5.710;2023-10-13T05:00:02;15.80;99.90
53844;DHT22;39744;53.314;5.710;2023-10-13T05:02:41;15.80;99.90
53844;DHT22;39744;53.314;5.710;2023-10-13T05:05:20;16.00;99.90
53844;DHT22;39744;53.314;5.710;2023-10-13T05:08:05;15.90;99.90
53844;DHT22;39744;53.314;5.710;2023-10-13T05:10:49;15.90;99.90
53844;DHT22;39744;53.314;5.710;2023-10-13T05:13:33;15.90;99.90
53844;DHT22;39744;53.314;5.710;2023-10-13T05:16:18;15.80;99.90
53844;DHT22;39744;53.314;5.710;2023-10-13T05:19:02;16.00;99.90
53844;DHT22;39744;53.314;5.710;2023-10-13T05:21:46;15.90;99.90
53844;DHT22;39744;53.314;5.710;2023-10-13T05:24:31;15.80;99.90
53844;DHT22;39744;53.314;5.710;2023-10-13T05:27:15;15.90;99.90
53844;DHT22;39744;53.314;5.710;2023-10-13T05:29:59;15.90;99.90
53844;DHT22;39744;53.314;5.710;2023-10-13T05:32:44;15.90;99.90
53844;DHT22;39744;53.314;5.710;2023-10-13T05:35:31;15.70;99.90
53844;DHT22;39744;53.314;5.710;2023-10-13T05:38:15;15.80;99.90
53844;DHT22;39744;53.314;5.710;2023-10-13T05:41:01;15.70;99.90
53844;DHT22;39744;53.314;5.710;2023-10-13T05:43:45;15.80;99.90
53844;DHT22;39744;53.314;5.710;2023-10-13T05:46:29;15.70;99.90
53844;DHT22;39744;53.314;5.710;2023-10-13T05:49:15;15.70;99.90
53844;DHT22;39744;53.314;5.710;2023-10-13T05:51:44;15.70;99.90
53844;DHT22;39744;53.314;5.710;2023-10-13T05:54:23;15.80;99.90
53844;DHT22;39744;53.314;5.710;2023-10-13T05:57:07;15.60;99.90
53844;DHT22;39744;53.314;5.710;2023-10-13T06:00:05;15.60;99.90
53844;DHT22;39744;53.314;5.710;2023-10-13T06:02:50;15.40;99.90
53844;DHT22;39744;53.314;5.710;2023-10-13T06:05:34;15.40;99.90
53844;DHT22;39744;53.314;5.710;2023-10-13T06:08:18;15.40;99.90
53844;DHT22;39744;53.314;5.710;2023-10-13T06:11:03;15.30;99.90
53844;DHT22;39744;53.314;5.710;2023-10-13T06:13:48;15.40;99.90
53844;DHT22;39744;53.314;5.710;2023-10-13T06:16:32;15.40;99.90
53844;DHT22;39744;53.314;5.710;2023-10-13T06:19:17;15.30;99.90
53844;DHT22;39744;53.314;5.710;2023-10-13T06:22:01;15.30;99.90
53844;DHT22;39744;53.314;5.710;2023-10-13T06:24:45;15.40;99.90
53844;DHT22;39744;53.314;5.710;2023-10-13T06:27:29;15.50;99.90
53844;DHT22;39744;53.314;5.710;2023-10-13T06:30:13;15.50;99.90
53844;DHT22;39744;53.314;5.710;2023-10-13T06:32:39;15.60;99.90
53844;DHT22;39744;53.314;5.710;2023-10-13T06:35:06;15.50;99.90
53844;DHT22;39744;53.314;5.710;2023-10-13T06:37:44;15.60;99.90
53844;DHT22;39744;53.314;5.710;2023-10-13T06:40:12;15.60;99.90
53844;DHT22;39744;53.314;5.710;2023-10-13T06:42:50;15.70;99.90
53844;DHT22;39744;53.314;5.710;2023-10-13T06:45:16;15.70;99.90
53844;DHT22;39744;53.314;5.710;2023-10-13T06:47:45;15.70;99.90
53844;DHT22;39744;53.314;5.710;2023-10-13T06:50:11;15.70;99.90
53844;DHT22;39744;53.314;5.710;2023-10-13T06:53:00;15.70;99.90
53844;DHT22;39744;53.314;5.710;2023-10-13T06:55:27;15.60;99.90
53844;DHT22;39744;53.314;5.710;2023-10-13T06:57:54;15.70;99.90
53844;DHT22;39744;53.314;5.710;2023-10-13T07:00:25;15.50;99.90
53844;DHT22;39744;53.314;5.710;2023-10-13T07:03:14;15.50;99.90
53844;DHT22;39744;53.314;5.710;2023-10-13T07:05:45;15.60;99.90
53844;DHT22;39744;53.314;5.710;2023-10-13T07:08:14;15.60;99.90
53844;DHT22;39744;53.314;5.710;2023-10-13T07:10:49;15.60;99.90
53844;DHT22;39744;53.314;5.710;2023-10-13T07:13:38;15.60;99.90
53844;DHT22;39744;53.314;5.710;2023-10-13T07:16:06;15.70;99.90
53844;DHT22;39744;53.314;5.710;2023-10-13T07:18:38;15.80;99.90
53844;DHT22;39744;53.314;5.710;2023-10-13T07:21:15;15.90;99.90
53844;DHT22;39744;53.314;5.710;2023-10-13T07:23:41;15.90;99.90
53844;DHT22;39744;53.314;5.710;2023-10-13T07:26:15;15.80;99.90
53844;DHT22;39744;53.314;5.710;2023-10-13T07:28:41;15.80;99.90
53844;DHT22;39744;53.314;5.710;2023-10-13T07:31:13;15.80;99.90
53844;DHT22;39744;53.314;5.710;2023-10-13T07:33:40;15.70;99.90
53844;DHT22;39744;53.314;5.710;2023-10-13T07:36:08;15.70;99.90
53844;DHT22;39744;53.314;5.710;2023-10-13T07:38:53;15.70;99.90
53844;DHT22;39744;53.314;5.710;2023-10-13T07:41:46;15.60;99.90
53844;DHT22;39744;53.314;5.710;2023-10-13T07:44:18;15.60;99.90
53844;DHT22;39744;53.314;5.710;2023-10-13T07:46:45;15.60;99.90
53844;DHT22;39744;53.314;5.710;2023-10-13T07:49:23;15.50;99.90
53844;DHT22;39744;53.314;5.710;2023-10-13T07:51:50;15.50;99.90
53844;DHT22;39744;53.314;5.710;2023-10-13T07:54:22;15.50;99.90
53844;DHT22;39744;53.314;5.710;2023-10-13T07:56:48;15.50;99.90
53844;DHT22;39744;53.314;5.710;2023-10-13T07:59:14;15.50;99.90
53844;DHT22;39744;53.314;5.710;2023-10-13T08:01:47;15.50;99.90
53844;DHT22;39744;53.314;5.710;2023-10-13T08:04:12;15.40;99.90
53844;DHT22;39744;53.314;5.710;2023-10-13T08:06:40;15.40;99.90
53844;DHT22;39744;53.314;5.710;2023-10-13T08:09:09;15.50;99.90
53844;DHT22;39744;53.314;5.710;2023-10-13T08:11:54;15.40;99.90
53844;DHT22;39744;53.314;5.710;2023-10-13T08:14:20;15.50;99.90
53844;DHT22;39744;53.314;5.710;2023-10-13T08:16:54;15.50;99.90
53844;DHT22;39744;53.314;5.710;2023-10-13T08:19:26;15.50;99.90
53844;DHT22;39744;53.314;5.710;2023-10-13T08:22:18;15.60;99.90
53844;DHT22;39744;53.314;5.710;2023-10-13T08:24:48;15.60;99.90
53844;DHT22;39744;53.314;5.710;2023-10-13T08:27:15;15.60;99.90
53844;DHT22;39744;53.314;5.710;2023-10-13T08:29:45;15.80;99.90
53844;DHT22;39744;53.314;5.710;2023-10-13T08:32:23;15.80;99.90
53844;DHT22;39744;53.314;5.710;2023-10-13T08:35:02;15.80;99.90
53844;DHT22;39744;53.314;5.710;2023-10-13T08:37:30;15.80;99.90
53844;DHT22;39744;53.314;5.710;2023-10-13T08:39:59;15.90;99.90
53844;DHT22;39744;53.314;5.710;2023-10-13T08:42:34;16.00;99.90
53844;DHT22;39744;53.314;5.710;2023-10-13T08:45:11;16.00;99.90
53844;DHT22;39744;53.314;5.710;2023-10-13T08:48:01;16.20;99.90
53844;DHT22;39744;53.314;5.710;2023-10-13T08:50:47;16.10;99.90
53844;DHT22;39744;53.314;5.710;2023-10-13T08:53:27;16.20;99.90
53844;DHT22;39744;53.314;5.710;2023-10-13T08:58:42;16.30;99.90
53844;DHT22;39744;53.314;5.710;2023-10-13T09:01:33;16.30;99.90
53844;DHT22;39744;53.314;5.710;2023-10-13T09:04:14;16.30;99.90
53844;DHT22;39744;53.314;5.710;2023-10-13T09:06:51;16.30;99.90
53844;DHT22;39744;53.314;5.710;2023-10-13T09:14:43;16.70;99.90
53844;DHT22;39744;53.314;5.710;2023-10-13T09:17:12;16.50;99.90
53844;DHT22;39744;53.314;5.710;2023-10-13T09:22:21;17.70;99.90
53844;DHT22;39744;53.314;5.710;2023-10-13T09:24:59;17.40;99.90
53844;DHT22;39744;53.314;5.710;2023-10-13T09:27:31;18.10;99.90
53844;DHT22;39744;53.314;5.710;2023-10-13T09:30:03;17.90;99.90
53844;DHT22;39744;53.314;5.710;2023-10-13T09:32:36;17.40;99.90
53844;DHT22;39744;53.314;5.710;2023-10-13T09:35:17;18.00;99.90
53844;DHT22;39744;53.314;5.710;2023-10-13T09:37:44;17.50;99.90
53844;DHT22;39744;53.314;5.710;2023-10-13T09:40:17;17.30;99.90
53844;DHT22;39744;53.314;5.710;2023-10-13T09:42:55;17.60;99.90
53844;DHT22;39744;53.314;5.710;2023-10-13T09:45:30;17.80;99.90
53844;DHT22;39744;53.314;5.710;2023-10-13T09:48:02;17.70;99.90
53844;DHT22;39744;53.314;5.710;2023-10-13T09:50:43;17.50;99.90
53844;DHT22;39744;53.314;5.710;2023-10-13T09:53:10;17.60;99.90
53844;DHT22;39744;53.314;5.710;2023-10-13T09:55:45;17.60;99.90
53844;DHT22;39744;53.314;5.710;2023-10-13T09:58:14;18.20;99.90
53844;DHT22;39744;53.314;5.710;2023-10-13T10:00:49;17.80;99.90
53844;DHT22;39744;53.314;5.710;2023-10-13T10:03:24;17.60;99.90
53844;DHT22;39744;53.314;5.710;2023-10-13T10:06:05;19.20;99.90
53844;DHT22;39744;53.314;5.710;2023-10-13T10:08:41;18.00;99.90
53844;DHT22;39744;53.314;5.710;2023-10-13T10:55:07;18.20;99.90
53844;DHT22;39744;53.314;5.710;2023-10-13T10:57:40;17.60;99.90
53844;DHT22;39744;53.314;5.710;2023-10-13T11:00:29;18.50;99.90
53844;DHT22;39744;53.314;5.710;2023-10-13T11:03:12;18.50;99.90
53844;DHT22;39744;53.314;5.710;2023-10-13T11:05:45;18.10;99.90
53844;DHT22;39744;53.314;5.710;2023-10-13T23:05:09;12.70;99.90
53844;DHT22;39744;53.314;5.710;2023-10-13T23:07:54;12.50;99.90
53844;DHT22;39744;53.314;5.710;2023-10-13T23:10:26;12.40;99.90
53844;DHT22;39744;53.314;5.710;2023-10-13T23:13:11;12.40;99.90
53844;DHT22;39744;53.314;5.710;2023-10-13T23:15:37;12.40;99.90
53844;DHT22;39744;53.314;5.710;2023-10-13T23:18:02;12.40;99.90
53844;DHT22;39744;53.314;5.710;2023-10-13T23:20:28;12.40;99.90
53844;DHT22;39744;53.314;5.710;2023-10-13T23:22:55;12.30;99.90
53844;DHT22;39744;53.314;5.710;2023-10-13T23:25:21;12.30;99.90
53844;DHT22;39744;53.314;5.710;2023-10-13T23:27:46;12.30;99.90
53844;DHT22;39744;53.314;5.710;2023-10-13T23:30:14;12.40;99.90
53844;DHT22;39744;53.314;5.710;2023-10-13T23:32:39;12.40;99.90
53844;DHT22;39744;53.314;5.710;2023-10-13T23:35:05;12.40;99.90
53844;DHT22;39744;53.314;5.710;2023-10-13T23:37:31;12.30;99.90
53844;DHT22;39744;53.314;5.710;2023-10-13T23:39:57;12.30;99.90
53844;DHT22;39744;53.314;5.710;2023-10-13T23:42:25;12.30;99.90
53844;DHT22;39744;53.314;5.710;2023-10-13T23:44:51;12.30;99.90
53844;DHT22;39744;53.314;5.710;2023-10-13T23:47:19;12.40;99.90
53844;DHT22;39744;53.314;5.710;2023-10-13T23:49:52;12.40;99.90
53844;DHT22;39744;53.314;5.710;2023-10-13T23:52:18;12.40;99.90
53844;DHT22;39744;53.314;5.710;2023-10-13T23:54:45;12.40;99.90
53844;DHT22;39744;53.314;5.710;2023-10-13T23:57:20;12.30;99.90
53844;DHT22;39744;53.314;5.710;2023-10-13T23:59:52;12.20;99.90
